Portada
METAR-TAF:

METAR-TAF

Aeroports :

Chumphon, Tailàndia

latitud: 10-42-40N, longitud: 099-21-42E, altitud: 5 m

Observació

L'informe es va fer fa 29 minuts, a les 00:00 UTC
Vent 3 kt del Nord-Oest, variant entre Oest i Nord
Temperatura 27°C
Humitat 94%
Pressió 1006 hPa
Visibilitat: 6000 m
Escasses núvols a una alçada de 2000 ft

METAR: VTSE 220000Z 32003KT 280V350 6000 FEW020 27/26 Q1006 NOSIG

Hora: 07:29 (00:29 UTC)

Pronòstic

L'informe es va fer fa 1 hora i 29 minuts, a les 23:00 UTC
Pronòstic vàlid del 22 a les 00 UTC al 22 a les 24 UTC
Vent 8 kt del Sud-Est
Visibilitat: 9000 m
Escasses núvols a una alçada de 2000 ft

TAF: VTSE 212300Z 2200/2224 14008KT 9000 FEW020

Observacions i pronòstics meteorològics de més de 4000 aeroports (METAR i TAF).

Les estacions disponibles són els punts grocs i vermells al mapa.

Posi el ratolí al punt desitjat per veure el nom de l'estació.

Feu clic per veure les observacions i els pronòstics meteorològics.

Per canviar el mapa: feu clic els botons verds amb una creu de color negre per apropar; al botó verd amb un guió per allunyar la imatge; o en les fletxes verdes per a mapes adjacents.


METAR-TAF: